Time;durP1;ratioP1;P1;durP2;ratioP2;P2;SDS_P1;SDS_P2;PMS_P1;PMS_P2;Temp;Humidity;BMP_temperature;BMP_pressure;BME280_temperature;BME280_humidity;BME280_pressure;Samples;Min_cycle;Max_cycle;Signal;HPM_P1;HPM_P2
2022/08/02 00:00:19;;;;;;;;;;;15.60;99.90;;;;;;5053552;28;20251;-74
2022/08/02 00:02:45;;;;;;;;;;;15.60;99.90;;;;;;5052575;28;20378;-74
2022/08/02 00:05:11;;;;;;;;;;;15.60;99.90;;;;;;5052665;28;19970;-74
2022/08/02 00:07:36;;;;;;;;;;;15.60;99.90;;;;;;5048265;28;20370;-74
2022/08/02 00:10:03;;;;;;;;;;;15.60;99.90;;;;;;5053418;28;19909;-74
2022/08/02 00:12:28;;;;;;;;;;;15.70;99.90;;;;;;5047598;28;19992;-74
2022/08/02 00:14:54;;;;;;;;;;;15.70;99.90;;;;;;5053137;28;20011;-74
2022/08/02 00:17:19;;;;;;;;;;;15.60;99.90;;;;;;5053314;28;19909;-74
2022/08/02 00:19:45;;;;;;;;;;;15.60;99.90;;;;;;5050310;28;19913;-74
2022/08/02 00:22:10;;;;;;;;;;;15.60;99.90;;;;;;5052684;28;20382;-74
2022/08/02 00:24:36;;;;;;;;;;;15.70;99.90;;;;;;5052529;28;19963;-74
2022/08/02 00:27:02;;;;;;;;;;;15.70;99.90;;;;;;5053018;28;20390;-74
2022/08/02 00:29:29;;;;;;;;;;;15.70;99.90;;;;;;5053049;28;19999;-74
2022/08/02 00:31:55;;;;;;;;;;;15.60;99.90;;;;;;5052267;28;19947;-74
2022/08/02 00:34:20;;;;;;;;;;;15.50;99.90;;;;;;5050913;28;19967;-74
2022/08/02 00:36:46;;;;;;;;;;;15.50;99.90;;;;;;5053062;28;19909;-74
2022/08/02 00:39:11;;;;;;;;;;;15.50;99.90;;;;;;5053193;28;19909;-74
2022/08/02 00:41:44;;;;;;;;;;;15.50;99.90;;;;;;5052329;28;20003;-74
2022/08/02 00:44:09;;;;;;;;;;;15.40;99.90;;;;;;5046240;28;20327;-74
2022/08/02 00:46:34;;;;;;;;;;;15.50;99.90;;;;;;5053053;28;20011;-74
2022/08/02 00:49:00;;;;;;;;;;;15.40;99.90;;;;;;5052179;28;19909;-74
2022/08/02 00:51:26;;;;;;;;;;;15.40;99.90;;;;;;5057469;28;19963;-74
2022/08/02 00:53:51;;;;;;;;;;;15.50;99.90;;;;;;5052423;28;19908;-74
2022/08/02 00:56:17;;;;;;;;;;;15.40;99.90;;;;;;5052866;28;20343;-74
2022/08/02 00:58:42;;;;;;;;;;;15.40;99.90;;;;;;5052611;28;19909;-74
2022/08/02 01:01:08;;;;;;;;;;;15.40;99.90;;;;;;5052592;28;19912;-74
2022/08/02 01:03:33;;;;;;;;;;;15.40;99.90;;;;;;5051762;28;19971;-74
2022/08/02 01:05:59;;;;;;;;;;;15.40;99.90;;;;;;5052691;28;19916;-74
2022/08/02 01:08:24;;;;;;;;;;;15.30;99.90;;;;;;5052058;28;20019;-74
2022/08/02 01:10:50;;;;;;;;;;;15.30;99.90;;;;;;5052087;28;19909;-74
2022/08/02 01:13:15;;;;;;;;;;;15.30;99.90;;;;;;5051546;28;19991;-74
2022/08/02 01:15:44;;;;;;;;;;;15.30;99.90;;;;;;5052017;28;19913;-74
2022/08/02 01:18:21;;;;;;;;;;;15.30;99.90;;;;;;5050546;28;20051;-74
2022/08/02 01:21:05;;;;;;;;;;;15.30;99.90;;;;;;5052501;28;20007;-74
2022/08/02 01:23:49;;;;;;;;;;;15.30;99.90;;;;;;5045388;28;20286;-74
2022/08/02 01:26:15;;;;;;;;;;;15.20;99.90;;;;;;5051995;28;19920;-74
2022/08/02 01:28:47;;;;;;;;;;;15.10;99.90;;;;;;5051807;28;19924;-74
2022/08/02 01:31:25;;;;;;;;;;;15.20;99.90;;;;;;5051537;28;19909;-74
2022/08/02 01:33:57;;;;;;;;;;;15.30;99.90;;;;;;5050542;28;19924;-74
2022/08/02 01:36:26;;;;;;;;;;;15.40;99.90;;;;;;5051730;28;19912;-74
2022/08/02 01:38:53;;;;;;;;;;;15.40;99.90;;;;;;5051623;28;20298;-74
2022/08/02 01:41:20;;;;;;;;;;;15.40;99.90;;;;;;5051258;28;19947;-74
2022/08/02 01:43:48;;;;;;;;;;;15.30;99.90;;;;;;5050723;28;20055;-74
2022/08/02 01:46:14;;;;;;;;;;;15.20;99.90;;;;;;5051461;28;20259;-74
2022/08/02 01:48:41;;;;;;;;;;;15.30;99.90;;;;;;5056399;28;19931;-74
2022/08/02 01:51:08;;;;;;;;;;;15.30;99.90;;;;;;5051801;28;20292;-74
2022/08/02 01:53:34;;;;;;;;;;;15.30;99.90;;;;;;5050388;28;20305;-74
2022/08/02 01:56:00;;;;;;;;;;;15.40;99.90;;;;;;5051398;28;20365;-74
2022/08/02 01:58:27;;;;;;;;;;;15.40;99.90;;;;;;5049771;28;19909;-74
2022/08/02 02:00:55;;;;;;;;;;;15.40;99.90;;;;;;5051388;28;19908;-74
2022/08/02 02:03:21;;;;;;;;;;;15.40;99.90;;;;;;5049819;28;19909;-74
2022/08/02 02:05:48;;;;;;;;;;;15.40;99.90;;;;;;5051121;28;19913;-74
2022/08/02 02:08:16;;;;;;;;;;;15.30;99.90;;;;;;5051039;28;19943;-74
2022/08/02 02:10:44;;;;;;;;;;;15.30;99.90;;;;;;5051355;28;20060;-74
2022/08/02 02:13:12;;;;;;;;;;;15.30;99.90;;;;;;5050449;28;19956;-74
2022/08/02 02:15:40;;;;;;;;;;;15.40;99.90;;;;;;5051196;28;20408;-74
2022/08/02 02:18:06;;;;;;;;;;;15.40;99.90;;;;;;5048486;28;20285;-74
2022/08/02 02:20:32;;;;;;;;;;;15.50;99.90;;;;;;5050897;28;19909;-74
2022/08/02 02:22:58;;;;;;;;;;;15.40;99.90;;;;;;5051029;28;20432;-74
2022/08/02 02:25:23;;;;;;;;;;;15.30;99.90;;;;;;5051090;28;20320;-74
2022/08/02 02:27:59;;;;;;;;;;;15.30;99.90;;;;;;5051002;28;19912;-74
2022/08/02 02:30:25;;;;;;;;;;;15.20;99.90;;;;;;5051173;28;19970;-74
2022/08/02 02:32:53;;;;;;;;;;;15.30;99.90;;;;;;5050528;28;19916;-74
2022/08/02 02:35:20;;;;;;;;;;;15.30;99.90;;;;;;5050462;28;19913;-74
2022/08/02 02:37:47;;;;;;;;;;;15.30;99.90;;;;;;5051048;28;19971;-74
2022/08/02 02:40:13;;;;;;;;;;;15.20;99.90;;;;;;5049832;28;19958;-74
2022/08/02 02:42:40;;;;;;;;;;;15.20;99.90;;;;;;5050977;28;19959;-74
2022/08/02 02:45:06;;;;;;;;;;;15.20;99.90;;;;;;5050337;28;20274;-74
2022/08/02 02:47:32;;;;;;;;;;;15.10;99.90;;;;;;5050870;28;20289;-74
2022/08/02 02:49:58;;;;;;;;;;;15.00;99.90;;;;;;5054433;28;19999;-74
2022/08/02 02:52:24;;;;;;;;;;;14.90;99.90;;;;;;5050251;28;20422;-74
2022/08/02 02:54:50;;;;;;;;;;;14.80;99.90;;;;;;5052512;28;20358;-74
2022/08/02 02:57:15;;;;;;;;;;;14.70;99.90;;;;;;5054133;28;19913;-74
2022/08/02 02:59:41;;;;;;;;;;;14.70;99.90;;;;;;5054376;28;20285;-74
2022/08/02 03:02:07;;;;;;;;;;;14.60;99.90;;;;;;5054071;28;19909;-74
2022/08/02 03:04:33;;;;;;;;;;;14.60;99.90;;;;;;5053768;28;20285;-74
2022/08/02 03:06:59;;;;;;;;;;;14.50;99.90;;;;;;5054567;28;19915;-74
2022/08/02 03:09:24;;;;;;;;;;;14.50;99.90;;;;;;5054305;28;19920;-74
2022/08/02 03:11:51;;;;;;;;;;;14.50;99.90;;;;;;5053875;28;19966;-74
2022/08/02 03:14:17;;;;;;;;;;;14.40;99.90;;;;;;5053944;28;19959;-74
2022/08/02 03:16:44;;;;;;;;;;;14.40;99.90;;;;;;5054327;28;19959;-74
2022/08/02 03:19:10;;;;;;;;;;;14.30;99.90;;;;;;5051398;28;20286;-74
2022/08/02 03:21:35;;;;;;;;;;;14.20;99.90;;;;;;5053691;28;19908;-74
2022/08/02 03:24:01;;;;;;;;;;;14.20;99.90;;;;;;5053570;28;19924;-74
2022/08/02 03:26:26;;;;;;;;;;;14.20;99.90;;;;;;5054405;28;19909;-74
2022/08/02 03:28:52;;;;;;;;;;;14.20;99.90;;;;;;5054076;28;19909;-74
2022/08/02 03:31:17;;;;;;;;;;;14.20;99.90;;;;;;5053544;28;19915;-74
2022/08/02 03:33:44;;;;;;;;;;;14.10;99.90;;;;;;5053465;28;20312;-74
2022/08/02 03:36:11;;;;;;;;;;;14.10;99.90;;;;;;5053813;28;19999;-74
2022/08/02 03:38:36;;;;;;;;;;;14.10;99.90;;;;;;5054068;28;20354;-74
2022/08/02 03:41:03;;;;;;;;;;;14.00;99.90;;;;;;5049332;28;19967;-74
2022/08/02 03:43:29;;;;;;;;;;;14.00;99.90;;;;;;5053096;28;19962;-74
2022/08/02 03:45:55;;;;;;;;;;;14.00;99.90;;;;;;5052702;28;19912;-74
2022/08/02 03:48:21;;;;;;;;;;;14.00;99.90;;;;;;5051079;28;20581;-74
2022/08/02 03:50:47;;;;;;;;;;;14.00;99.90;;;;;;5053739;28;19909;-74
2022/08/02 03:53:13;;;;;;;;;;;14.00;99.90;;;;;;5053413;28;19916;-74
2022/08/02 03:55:38;;;;;;;;;;;13.90;99.90;;;;;;5053836;28;20276;-74
2022/08/02 03:58:04;;;;;;;;;;;13.90;99.90;;;;;;5046937;28;19919;-74
2022/08/02 04:00:30;;;;;;;;;;;13.80;99.90;;;;;;5053451;28;19909;-74
2022/08/02 04:02:55;;;;;;;;;;;13.90;99.90;;;;;;5053140;28;19909;-74
2022/08/02 04:05:21;;;;;;;;;;;13.80;99.90;;;;;;5052118;28;19913;-74
2022/08/02 04:07:47;;;;;;;;;;;13.70;99.90;;;;;;5053222;28;19923;-74
2022/08/02 04:10:13;;;;;;;;;;;13.80;99.90;;;;;;5053526;28;19913;-74
2022/08/02 04:12:39;;;;;;;;;;;13.80;99.90;;;;;;5053078;28;20397;-74
2022/08/02 04:15:04;;;;;;;;;;;13.90;99.90;;;;;;5052986;28;19924;-74
2022/08/02 04:17:31;;;;;;;;;;;13.90;99.90;;;;;;5053496;28;19986;-74
2022/08/02 04:20:02;;;;;;;;;;;13.80;99.90;;;;;;5055184;28;19909;-74
2022/08/02 04:22:35;;;;;;;;;;;13.80;99.90;;;;;;5051937;28;20337;-74
2022/08/02 04:25:02;;;;;;;;;;;13.80;99.90;;;;;;5052690;28;19909;-74
2022/08/02 04:27:28;;;;;;;;;;;13.80;99.90;;;;;;5053183;28;20358;-74
2022/08/02 04:29:53;;;;;;;;;;;13.80;99.90;;;;;;5052850;28;19962;-74
2022/08/02 04:32:19;;;;;;;;;;;13.80;99.90;;;;;;5052261;28;20359;-74
2022/08/02 04:34:45;;;;;;;;;;;13.90;99.90;;;;;;5052292;28;19917;-74
2022/08/02 04:37:11;;;;;;;;;;;13.90;99.90;;;;;;5051904;28;20340;-74
2022/08/02 04:39:37;;;;;;;;;;;14.00;99.90;;;;;;5050211;28;20000;-73
2022/08/02 04:42:02;;;;;;;;;;;14.10;99.90;;;;;;5051704;28;20023;-74
2022/08/02 04:44:28;;;;;;;;;;;14.20;99.90;;;;;;5051574;28;19954;-74
2022/08/02 04:46:54;;;;;;;;;;;14.20;99.90;;;;;;5052174;28;19913;-73
2022/08/02 04:49:20;;;;;;;;;;;14.20;99.90;;;;;;5053698;28;19999;-74
2022/08/02 04:51:45;;;;;;;;;;;14.30;99.90;;;;;;5052959;28;19999;-74
2022/08/02 04:54:11;;;;;;;;;;;14.30;99.90;;;;;;5051868;28;19970;-74
2022/08/02 04:56:37;;;;;;;;;;;14.30;99.90;;;;;;5051477;28;19909;-74
2022/08/02 04:59:03;;;;;;;;;;;14.40;99.90;;;;;;5052743;28;19909;-74
2022/08/02 05:01:29;;;;;;;;;;;14.40;99.90;;;;;;5052532;28;20286;-74
2022/08/02 05:03:54;;;;;;;;;;;14.50;99.90;;;;;;5052273;28;19919;-74
2022/08/02 05:06:20;;;;;;;;;;;14.60;99.90;;;;;;5052228;28;19944;-74
2022/08/02 05:08:46;;;;;;;;;;;14.70;99.90;;;;;;5052358;28;19974;-74
2022/08/02 05:11:12;;;;;;;;;;;14.80;99.90;;;;;;5052451;28;19913;-74
2022/08/02 05:13:37;;;;;;;;;;;14.80;99.90;;;;;;5051584;28;20392;-74
2022/08/02 05:16:03;;;;;;;;;;;14.90;99.90;;;;;;5052594;28;19912;-74
2022/08/02 05:18:29;;;;;;;;;;;15.00;99.90;;;;;;5049832;28;19908;-74
2022/08/02 05:20:55;;;;;;;;;;;15.20;99.90;;;;;;5051790;28;20277;-74
2022/08/02 05:23:20;;;;;;;;;;;15.40;99.90;;;;;;5051335;28;19916;-74
2022/08/02 05:25:46;;;;;;;;;;;15.50;99.90;;;;;;5052470;28;20007;-74
2022/08/02 05:28:11;;;;;;;;;;;15.70;99.90;;;;;;5052048;28;19916;-74
2022/08/02 05:30:37;;;;;;;;;;;15.70;99.90;;;;;;5052067;28;19963;-74
2022/08/02 05:33:03;;;;;;;;;;;15.80;99.90;;;;;;5051563;28;19912;-74
2022/08/02 05:35:29;;;;;;;;;;;15.90;99.90;;;;;;5051093;28;19913;-74
2022/08/02 05:37:54;;;;;;;;;;;16.00;99.90;;;;;;5052029;28;19944;-74
2022/08/02 05:40:20;;;;;;;;;;;16.10;99.90;;;;;;5052122;28;19963;-74
2022/08/02 05:42:45;;;;;;;;;;;16.20;99.90;;;;;;5044917;28;19909;-74
2022/08/02 05:45:11;;;;;;;;;;;16.30;99.90;;;;;;5051368;28;19913;-74
2022/08/02 05:47:37;;;;;;;;;;;16.40;99.90;;;;;;5051590;28;19960;-74
2022/08/02 05:50:03;;;;;;;;;;;16.40;99.90;;;;;;5057517;28;19948;-74
2022/08/02 05:52:39;;;;;;;;;;;16.40;99.90;;;;;;5050801;28;19908;-74
2022/08/02 05:55:06;;;;;;;;;;;16.40;99.90;;;;;;5051148;28;19970;-74
2022/08/02 05:57:51;;;;;;;;;;;16.40;99.90;;;;;;5051790;28;19909;-74
2022/08/02 06:00:17;;;;;;;;;;;16.40;99.90;;;;;;5051701;28;20331;-74
2022/08/02 06:02:53;;;;;;;;;;;16.40;99.90;;;;;;5051141;28;19917;-74
2022/08/02 06:05:19;;;;;;;;;;;16.50;99.90;;;;;;5051038;28;19961;-74
2022/08/02 06:07:46;;;;;;;;;;;16.50;99.90;;;;;;5051577;28;19921;-74
2022/08/02 06:10:12;;;;;;;;;;;16.60;99.90;;;;;;5051619;28;19913;-73
2022/08/02 06:12:40;;;;;;;;;;;16.70;99.90;;;;;;5051270;28;19976;-74
2022/08/02 06:15:06;;;;;;;;;;;16.80;99.90;;;;;;5050835;28;20286;-74
2022/08/02 06:17:32;;;;;;;;;;;16.90;99.90;;;;;;5051396;28;19909;-74
2022/08/02 06:19:59;;;;;;;;;;;17.00;99.90;;;;;;5051058;28;19916;-73
2022/08/02 06:22:25;;;;;;;;;;;17.50;99.90;;;;;;5050684;28;19916;-74
2022/08/02 06:24:51;;;;;;;;;;;17.40;99.90;;;;;;5050776;28;19912;-74
2022/08/02 06:27:17;;;;;;;;;;;17.30;99.90;;;;;;5051291;28;19954;-74
2022/08/02 06:29:43;;;;;;;;;;;17.30;99.90;;;;;;5049334;28;19913;-73
2022/08/02 06:32:08;;;;;;;;;;;17.30;99.90;;;;;;5050592;28;19991;-74
2022/08/02 06:34:40;;;;;;;;;;;17.30;99.90;;;;;;5050626;28;19945;-74
2022/08/02 06:37:21;;;;;;;;;;;17.40;99.90;;;;;;5051391;28;19915;-74
2022/08/02 06:39:47;;;;;;;;;;;17.50;99.90;;;;;;5045270;28;19909;-74
2022/08/02 06:42:16;;;;;;;;;;;17.50;99.90;;;;;;5048688;28;20384;-73
2022/08/02 06:44:41;;;;;;;;;;;17.60;99.90;;;;;;5050974;28;20011;-74
2022/08/02 06:47:07;;;;;;;;;;;17.70;99.90;;;;;;5051091;28;19937;-73
2022/08/02 06:49:33;;;;;;;;;;;17.90;99.90;;;;;;5050870;28;19970;-73
2022/08/02 06:51:58;;;;;;;;;;;17.90;99.90;;;;;;5050224;28;19909;-74
2022/08/02 06:54:24;;;;;;;;;;;18.00;99.90;;;;;;5049177;28;20309;-74
2022/08/02 06:56:49;;;;;;;;;;;18.10;99.90;;;;;;5050942;28;19990;-73
2022/08/02 06:59:15;;;;;;;;;;;18.20;99.90;;;;;;5050909;28;19909;-74
2022/08/02 07:01:40;;;;;;;;;;;18.30;99.90;;;;;;5050504;28;19909;-74
2022/08/02 07:04:06;;;;;;;;;;;18.50;99.90;;;;;;5050586;28;20362;-74
2022/08/02 07:06:31;;;;;;;;;;;18.60;99.90;;;;;;5050789;28;20007;-74
2022/08/02 07:08:57;;;;;;;;;;;19.20;99.90;;;;;;5050778;28;19923;-74
2022/08/02 07:11:22;;;;;;;;;;;19.60;99.90;;;;;;5045147;28;19912;-74
2022/08/02 07:13:48;;;;;;;;;;;19.50;99.90;;;;;;5050263;28;19908;-74
2022/08/02 07:16:14;;;;;;;;;;;19.90;99.90;;;;;;5050665;28;19913;-74
2022/08/02 07:18:39;;;;;;;;;;;20.70;99.90;;;;;;5050742;28;19916;-75
2022/08/02 07:21:05;;;;;;;;;;;20.80;99.90;;;;;;5050223;28;20377;-74
2022/08/02 07:23:31;;;;;;;;;;;21.50;99.90;;;;;;5050070;28;19908;-74
2022/08/02 07:25:56;;;;;;;;;;;22.10;99.90;;;;;;5050464;28;20393;-74
2022/08/02 07:28:22;;;;;;;;;;;22.60;99.90;;;;;;5050793;28;20357;-74
2022/08/02 07:30:47;;;;;;;;;;;23.60;99.90;;;;;;5050840;28;20427;-75
2022/08/02 07:33:13;;;;;;;;;;;23.90;99.90;;;;;;5049718;28;19909;-75
2022/08/02 07:35:39;;;;;;;;;;;24.20;99.90;;;;;;5050120;28;19913;-74
2022/08/02 07:38:05;;;;;;;;;;;24.20;99.90;;;;;;5050669;28;19916;-74
2022/08/02 07:40:31;;;;;;;;;;;23.40;99.90;;;;;;5051315;28;20270;-74
2022/08/02 07:42:56;;;;;;;;;;;23.80;99.90;;;;;;5054138;28;19999;-75
2022/08/02 07:45:22;;;;;;;;;;;24.30;99.90;;;;;;5053792;28;19919;-75
2022/08/02 07:47:48;;;;;;;;;;;23.50;99.90;;;;;;5054311;28;20002;-75
2022/08/02 07:50:14;;;;;;;;;;;23.60;99.90;;;;;;5066327;28;19909;-75
2022/08/02 07:52:40;;;;;;;;;;;23.70;99.90;;;;;;5055087;28;20476;-75
2022/08/02 07:55:06;;;;;;;;;;;23.60;99.90;;;;;;5053042;28;19963;-75
2022/08/02 07:57:32;;;;;;;;;;;23.40;99.90;;;;;;5053651;28;19913;-75
2022/08/02 07:59:57;;;;;;;;;;;23.70;99.90;;;;;;5054024;28;19908;-75
2022/08/02 08:02:26;;;;;;;;;;;24.40;99.90;;;;;;5053718;28;19917;-75
2022/08/02 08:04:51;;;;;;;;;;;25.10;99.90;;;;;;5051964;28;19974;-75
2022/08/02 08:07:17;;;;;;;;;;;25.90;99.90;;;;;;5053632;28;19913;-73
2022/08/02 08:09:43;;;;;;;;;;;26.30;99.90;;;;;;5053381;28;19912;-73
2022/08/02 08:12:10;;;;;;;;;;;26.00;99.90;;;;;;5053465;28;19909;-73
2022/08/02 08:14:36;;;;;;;;;;;26.10;99.90;;;;;;5053681;28;19939;-73
2022/08/02 08:17:02;;;;;;;;;;;26.40;99.90;;;;;;5053435;28;19909;-73
2022/08/02 08:19:27;;;;;;;;;;;26.00;99.90;;;;;;5055001;28;19963;-73
2022/08/02 08:21:53;;;;;;;;;;;26.30;99.90;;;;;;5052779;28;20007;-73
2022/08/02 08:24:18;;;;;;;;;;;26.20;99.90;;;;;;5052455;28;20004;-76
2022/08/02 08:26:44;;;;;;;;;;;25.90;99.90;;;;;;5053413;28;19917;-74
2022/08/02 08:29:09;;;;;;;;;;;27.10;99.90;;;;;;5053111;28;19908;-74
2022/08/02 08:31:35;;;;;;;;;;;27.00;99.90;;;;;;5053311;28;19920;-74
2022/08/02 08:34:02;;;;;;;;;;;27.70;99.90;;;;;;5051454;28;19909;-73
2022/08/02 08:36:27;;;;;;;;;;;27.50;99.90;;;;;;5052725;28;20006;-74
2022/08/02 08:38:53;;;;;;;;;;;27.70;99.50;;;;;;5052820;28;19975;-74
2022/08/02 08:41:18;;;;;;;;;;;27.60;99.10;;;;;;5052651;28;20328;-74
2022/08/02 08:43:44;;;;;;;;;;;27.90;99.50;;;;;;5052595;28;19963;-73
2022/08/02 08:46:11;;;;;;;;;;;28.00;99.90;;;;;;5052905;28;20281;-73
2022/08/02 08:48:39;;;;;;;;;;;28.60;99.40;;;;;;5056649;28;19908;-73
2022/08/02 08:51:13;;;;;;;;;;;28.80;97.90;;;;;;5052009;28;20373;-73
2022/08/02 08:53:41;;;;;;;;;;;28.60;99.70;;;;;;5052329;28;19909;-73
2022/08/02 08:56:07;;;;;;;;;;;28.80;96.60;;;;;;5052654;28;19968;-73
2022/08/02 08:58:33;;;;;;;;;;;28.70;96.50;;;;;;5052800;28;19915;-73
2022/08/02 09:00:58;;;;;;;;;;;28.40;96.00;;;;;;5052681;28;20003;-73
2022/08/02 09:03:24;;;;;;;;;;;28.20;94.60;;;;;;5051976;28;19958;-73
2022/08/02 09:05:50;;;;;;;;;;;28.40;95.10;;;;;;5052302;28;19970;-73
2022/08/02 09:08:15;;;;;;;;;;;28.90;95.70;;;;;;5052711;28;19924;-73
2022/08/02 09:10:42;;;;;;;;;;;28.10;93.90;;;;;;5052961;28;19908;-74
2022/08/02 09:13:22;;;;;;;;;;;26.90;95.70;;;;;;5051683;28;20421;-74
2022/08/02 09:15:55;;;;;;;;;;;28.90;99.10;;;;;;5052369;28;20324;-74
2022/08/02 09:18:28;;;;;;;;;;;29.30;92.30;;;;;;5049447;28;19913;-74
2022/08/02 09:20:56;;;;;;;;;;;28.90;94.90;;;;;;5055367;28;19962;-74
2022/08/02 09:23:22;;;;;;;;;;;28.20;95.10;;;;;;5051001;28;19991;-74
2022/08/02 09:26:11;;;;;;;;;;;28.80;93.60;;;;;;5050497;28;19936;-74
2022/08/02 09:28:37;;;;;;;;;;;29.80;95.10;;;;;;5051242;28;19909;-74
2022/08/02 09:31:03;;;;;;;;;;;30.20;91.10;;;;;;5052059;28;19909;-74
2022/08/02 09:33:28;;;;;;;;;;;28.90;93.80;;;;;;5051395;28;19908;-74
2022/08/02 09:36:02;;;;;;;;;;;29.80;91.70;;;;;;5051897;28;19919;-74
2022/08/02 09:38:28;;;;;;;;;;;29.20;93.20;;;;;;5045854;28;20319;-74
2022/08/02 09:40:53;;;;;;;;;;;28.80;93.30;;;;;;5051866;28;20021;-74
2022/08/02 09:43:19;;;;;;;;;;;30.10;93.80;;;;;;5051016;28;20039;-75
2022/08/02 09:45:45;;;;;;;;;;;30.30;94.00;;;;;;5045551;28;19944;-74
2022/08/02 09:48:11;;;;;;;;;;;31.60;93.50;;;;;;5051580;28;19909;-74
2022/08/02 09:50:37;;;;;;;;;;;30.90;85.10;;;;;;5056192;28;19909;-75
2022/08/02 09:53:03;;;;;;;;;;;31.70;92.40;;;;;;5050505;28;20583;-75
2022/08/02 09:55:29;;;;;;;;;;;32.40;87.70;;;;;;5050483;28;20354;-75
2022/08/02 09:57:54;;;;;;;;;;;31.90;85.60;;;;;;5051958;28;19909;-75
2022/08/02 10:00:20;;;;;;;;;;;31.10;87.70;;;;;;5051580;28;19908;-75
2022/08/02 10:03:04;;;;;;;;;;;31.30;89.40;;;;;;5050970;28;20328;-75
2022/08/02 10:05:30;;;;;;;;;;;30.80;90.60;;;;;;5050856;28;19936;-74
2022/08/02 10:07:56;;;;;;;;;;;29.70;92.30;;;;;;5051520;28;19952;-74
2022/08/02 10:10:22;;;;;;;;;;;30.30;84.60;;;;;;5051484;28;19936;-75
2022/08/02 10:12:47;;;;;;;;;;;30.60;81.50;;;;;;5051104;28;20408;-74
2022/08/02 10:15:14;;;;;;;;;;;31.40;89.50;;;;;;5051058;28;19913;-75
2022/08/02 10:17:39;;;;;;;;;;;31.80;82.70;;;;;;5044728;28;19974;-75
2022/08/02 10:20:05;;;;;;;;;;;32.20;80.80;;;;;;5055806;28;19917;-75
2022/08/02 10:22:32;;;;;;;;;;;32.80;82.00;;;;;;5050955;28;19916;-75
2022/08/02 10:25:00;;;;;;;;;;;33.10;84.80;;;;;;5050607;28;19909;-75
2022/08/02 10:27:28;;;;;;;;;;;32.80;76.60;;;;;;5051221;28;20460;-75
2022/08/02 10:29:56;;;;;;;;;;;32.60;81.70;;;;;;5051235;28;19935;-75
2022/08/02 10:32:41;;;;;;;;;;;32.10;73.90;;;;;;5051028;28;19912;-75
2022/08/02 10:35:07;;;;;;;;;;;31.30;78.10;;;;;;5046399;28;19913;-75
2022/08/02 10:37:35;;;;;;;;;;;31.60;77.10;;;;;;5050796;28;20324;-75
2022/08/02 10:40:00;;;;;;;;;;;32.10;84.10;;;;;;5049943;28;19954;-75
2022/08/02 10:42:46;;;;;;;;;;;31.80;79.10;;;;;;5050872;28;19913;-75
2022/08/02 10:45:14;;;;;;;;;;;30.60;83.50;;;;;;5050401;28;19931;-75
2022/08/02 10:48:00;;;;;;;;;;;31.20;77.90;;;;;;5050991;28;20289;-75
2022/08/02 10:50:44;;;;;;;;;;;30.60;75.80;;;;;;5049866;28;19909;-75
2022/08/02 10:53:29;;;;;;;;;;;30.80;80.00;;;;;;5050082;28;20389;-75
2022/08/02 10:55:55;;;;;;;;;;;31.20;77.10;;;;;;5049713;28;19950;-75
2022/08/02 10:58:22;;;;;;;;;;;31.30;77.00;;;;;;5050834;28;19909;-75
2022/08/02 11:00:48;;;;;;;;;;;31.20;74.80;;;;;;5051153;28;19948;-75
2022/08/02 11:03:32;;;;;;;;;;;30.60;77.50;;;;;;5050119;28;20330;-75
2022/08/02 11:06:02;;;;;;;;;;;30.80;81.40;;;;;;5044404;28;19948;-75
2022/08/02 11:08:28;;;;;;;;;;;30.80;75.50;;;;;;5050906;28;20336;-75
2022/08/02 11:10:57;;;;;;;;;;;31.40;79.40;;;;;;5050723;28;19908;-75
2022/08/02 11:13:25;;;;;;;;;;;31.80;77.90;;;;;;5050113;28;19909;-76
2022/08/02 11:16:00;;;;;;;;;;;31.50;74.40;;;;;;5053848;28;20364;-75
2022/08/02 11:18:48;;;;;;;;;;;30.80;78.70;;;;;;5054836;28;19960;-75
2022/08/02 11:21:27;;;;;;;;;;;30.90;76.30;;;;;;5053122;28;20399;-75
2022/08/02 11:23:53;;;;;;;;;;;31.90;80.80;;;;;;5053898;28;19908;-75
2022/08/02 11:26:28;;;;;;;;;;;31.60;77.70;;;;;;5054550;28;19916;-75
2022/08/02 11:28:53;;;;;;;;;;;31.40;76.00;;;;;;5048558;28;19916;-75
2022/08/02 11:31:19;;;;;;;;;;;31.50;80.10;;;;;;5054074;28;20269;-75
2022/08/02 11:33:47;;;;;;;;;;;30.90;70.50;;;;;;5047033;28;19909;-75
2022/08/02 11:36:13;;;;;;;;;;;31.10;73.00;;;;;;5047636;28;20003;-75
2022/08/02 11:38:39;;;;;;;;;;;31.50;73.40;;;;;;5046504;28;19909;-75
2022/08/02 11:41:05;;;;;;;;;;;31.10;73.00;;;;;;5054527;28;20106;-75
2022/08/02 11:43:31;;;;;;;;;;;30.80;75.30;;;;;;5053431;28;20316;-75
2022/08/02 11:45:57;;;;;;;;;;;29.80;78.10;;;;;;5054295;28;19963;-75
2022/08/02 11:48:29;;;;;;;;;;;30.50;70.90;;;;;;5053794;28;19979;-75
2022/08/02 11:51:03;;;;;;;;;;;31.00;71.60;;;;;;5053773;28;19909;-75
2022/08/02 11:53:32;;;;;;;;;;;30.80;67.40;;;;;;5053200;28;19983;-75
2022/08/02 11:55:58;;;;;;;;;;;31.10;70.50;;;;;;5053814;28;20347;-75
2022/08/02 11:58:23;;;;;;;;;;;30.30;70.20;;;;;;5053767;28;19909;-75
2022/08/02 12:00:49;;;;;;;;;;;30.80;71.70;;;;;;5053739;28;19913;-75
2022/08/02 12:03:14;;;;;;;;;;;30.90;74.80;;;;;;5052957;28;20377;-75
2022/08/02 12:05:40;;;;;;;;;;;31.10;69.90;;;;;;5053506;28;19916;-75
2022/08/02 12:08:06;;;;;;;;;;;31.10;71.20;;;;;;5053612;28;20259;-75
2022/08/02 12:10:32;;;;;;;;;;;30.90;72.00;;;;;;5052370;28;19916;-75
2022/08/02 12:12:58;;;;;;;;;;;30.70;68.70;;;;;;5053056;28;19909;-75
2022/08/02 12:15:35;;;;;;;;;;;30.30;72.70;;;;;;5052891;28;19912;-75
2022/08/02 12:20:45;;;;;;;;;;;30.30;72.00;;;;;;5061381;28;19962;-75
2022/08/02 12:23:11;;;;;;;;;;;30.20;67.60;;;;;;5052756;28;20374;-75
2022/08/02 12:25:36;;;;;;;;;;;29.90;69.40;;;;;;5053476;28;20000;-75
2022/08/02 12:28:16;;;;;;;;;;;30.30;73.10;;;;;;5052997;28;19909;-75
2022/08/02 12:31:12;;;;;;;;;;;30.80;70.50;;;;;;5053437;28;19936;-75
2022/08/02 12:33:53;;;;;;;;;;;32.20;66.00;;;;;;5046979;28;19908;-75
2022/08/02 12:36:19;;;;;;;;;;;33.70;60.60;;;;;;5052987;28;19951;-75
2022/08/02 12:38:51;;;;;;;;;;;35.00;59.90;;;;;;5053265;28;20425;-75
2022/08/02 12:41:16;;;;;;;;;;;35.40;58.60;;;;;;5052845;28;19962;-75
2022/08/02 12:43:42;;;;;;;;;;;35.40;57.30;;;;;;5052833;28;19962;-75
2022/08/02 12:46:14;;;;;;;;;;;36.50;56.30;;;;;;5053285;28;19952;-75
2022/08/02 12:48:40;;;;;;;;;;;36.40;55.90;;;;;;5050457;28;20360;-75
2022/08/02 12:51:20;;;;;;;;;;;37.30;54.90;;;;;;5052668;28;19920;-75
2022/08/02 12:53:46;;;;;;;;;;;38.00;52.00;;;;;;5052176;28;20400;-75
2022/08/02 12:56:12;;;;;;;;;;;37.40;52.00;;;;;;5052937;28;19956;-75
2022/08/02 12:58:47;;;;;;;;;;;36.60;52.40;;;;;;5052905;28;20277;-75
2022/08/02 13:01:18;;;;;;;;;;;37.10;51.10;;;;;;5050760;28;20286;-75
2022/08/02 13:03:44;;;;;;;;;;;36.70;53.90;;;;;;5051665;28;19924;-75
2022/08/02 13:06:10;;;;;;;;;;;36.90;51.90;;;;;;5052434;28;19909;-75
2022/08/02 13:08:35;;;;;;;;;;;37.00;49.90;;;;;;5052385;28;19974;-75
2022/08/02 13:11:01;;;;;;;;;;;37.00;52.30;;;;;;5052523;28;20343;-75
2022/08/02 13:13:26;;;;;;;;;;;36.70;52.80;;;;;;5051770;28;19909;-75
2022/08/02 13:15:52;;;;;;;;;;;37.30;51.50;;;;;;5052161;28;19913;-75
2022/08/02 13:18:17;;;;;;;;;;;37.20;53.20;;;;;;5051891;28;19982;-75
2022/08/02 13:20:42;;;;;;;;;;;37.20;52.00;;;;;;5051991;28;19909;-75
2022/08/02 13:23:08;;;;;;;;;;;36.90;49.40;;;;;;5051360;28;19955;-75
2022/08/02 13:25:33;;;;;;;;;;;36.20;51.20;;;;;;5052300;28;19956;-75
2022/08/02 13:27:59;;;;;;;;;;;37.50;51.40;;;;;;5052162;28;19909;-75
2022/08/02 13:30:25;;;;;;;;;;;37.40;50.40;;;;;;5050898;28;19920;-75
2022/08/02 13:32:50;;;;;;;;;;;37.60;51.90;;;;;;5052313;28;19909;-75
2022/08/02 13:35:16;;;;;;;;;;;37.40;50.70;;;;;;5051369;28;19913;-75
2022/08/02 13:37:41;;;;;;;;;;;37.20;51.80;;;;;;5051125;28;19948;-75
2022/08/02 13:40:07;;;;;;;;;;;36.30;53.00;;;;;;5051569;28;19908;-75
2022/08/02 13:42:33;;;;;;;;;;;36.40;53.40;;;;;;5051620;28;19967;-75
2022/08/02 13:44:58;;;;;;;;;;;36.30;54.00;;;;;;5051288;28;19960;-75
2022/08/02 13:47:24;;;;;;;;;;;36.60;52.90;;;;;;5051934;28;19937;-75
2022/08/02 13:49:49;;;;;;;;;;;35.80;53.10;;;;;;5056342;28;19909;-75
2022/08/02 13:52:15;;;;;;;;;;;33.80;54.70;;;;;;5051067;28;19912;-75
2022/08/02 13:54:40;;;;;;;;;;;34.20;55.50;;;;;;5051414;28;20069;-75
2022/08/02 13:57:06;;;;;;;;;;;34.80;52.80;;;;;;5051800;28;19909;-75
2022/08/02 13:59:32;;;;;;;;;;;34.50;54.90;;;;;;5051311;28;19916;-75
2022/08/02 14:01:57;;;;;;;;;;;34.80;55.40;;;;;;5051281;28;20014;-75
2022/08/02 14:04:23;;;;;;;;;;;35.10;50.70;;;;;;5051092;28;19910;-75
2022/08/02 14:06:48;;;;;;;;;;;35.40;52.70;;;;;;5051350;28;19942;-75
2022/08/02 14:09:14;;;;;;;;;;;35.80;56.00;;;;;;5051462;28;19923;-75
2022/08/02 14:11:39;;;;;;;;;;;35.30;52.40;;;;;;5051224;28;19909;-75
2022/08/02 14:14:05;;;;;;;;;;;35.10;50.10;;;;;;5050686;28;19912;-75
2022/08/02 14:16:30;;;;;;;;;;;34.80;54.00;;;;;;5051279;28;19917;-75
2022/08/02 14:18:56;;;;;;;;;;;34.60;52.80;;;;;;5050112;28;19991;-76